Time;durP1;ratioP1;P1;durP2;ratioP2;P2;SDS_P1;SDS_P2;PMS_P1;PMS_P2;Temp;Humidity;BMP_temperature;BMP_pressure;BME280_temperature;BME280_humidity;BME280_pressure;Samples;Min_cycle;Max_cycle;Signal;HPM_P1;HPM_P2
2022/01/11 06:00:14;;;;;;;26.10;22.10;;;6.10;97.20;;;;;;1702104;29;20532;-83
2022/01/11 06:01:05;;;;;;;29.48;22.15;;;6.10;97.20;;;;;;1695497;29;20219;-84
2022/01/11 06:01:57;;;;;;;29.45;23.45;;;6.10;97.20;;;;;;1695371;29;20204;-84
2022/01/11 06:02:52;;;;;;;29.73;23.50;;;6.10;97.20;;;;;;1698545;29;20229;-84
2022/01/11 06:03:43;;;;;;;29.95;22.95;;;6.10;97.20;;;;;;1702450;29;20207;-84
2022/01/11 06:04:34;;;;;;;28.25;23.02;;;6.10;97.20;;;;;;1702050;29;20234;-84
2022/01/11 06:05:26;;;;;;;25.83;21.43;;;6.10;97.20;;;;;;1698530;29;20600;-83
2022/01/11 06:06:17;;;;;;;29.40;23.10;;;6.10;97.20;;;;;;1698971;29;20569;-83
2022/01/11 06:07:09;;;;;;;31.83;23.97;;;6.10;97.20;;;;;;1701824;29;20268;-83
2022/01/11 06:07:59;;;;;;;27.60;23.42;;;6.10;97.20;;;;;;1700318;29;20462;-82
2022/01/11 06:08:51;;;;;;;27.07;23.00;;;6.10;97.20;;;;;;1700595;29;20305;-83
2022/01/11 06:09:42;;;;;;;28.52;22.40;;;6.10;97.20;;;;;;1699967;29;20228;-83
2022/01/11 06:10:34;;;;;;;30.67;22.80;;;6.10;97.20;;;;;;1695363;29;20631;-83
2022/01/11 06:11:25;;;;;;;29.48;23.20;;;6.10;97.20;;;;;;1694705;29;20459;-83
2022/01/11 06:12:16;;;;;;;26.00;22.80;;;6.10;97.20;;;;;;1695582;29;20211;-83
2022/01/11 06:13:07;;;;;;;28.50;23.27;;;6.10;97.20;;;;;;1695680;29;20240;-83
2022/01/11 06:13:59;;;;;;;26.43;22.77;;;6.10;97.20;;;;;;1695592;29;20722;-83
2022/01/11 06:14:50;;;;;;;27.27;21.75;;;6.10;97.20;;;;;;1696670;29;20215;-83
2022/01/11 06:15:43;;;;;;;29.87;23.37;;;6.10;97.20;;;;;;1695948;29;20203;-83
2022/01/11 06:16:33;;;;;;;25.15;22.15;;;6.10;97.20;;;;;;1695697;29;20849;-82
2022/01/11 06:17:25;;;;;;;29.63;23.40;;;6.10;97.20;;;;;;1696183;29;20679;-83
2022/01/11 06:18:16;;;;;;;28.15;22.33;;;6.10;97.20;;;;;;1699343;29;20253;-83
2022/01/11 06:19:08;;;;;;;29.03;24.60;;;6.10;97.20;;;;;;1703093;29;20203;-83
2022/01/11 06:19:58;;;;;;;25.00;22.40;;;6.10;97.20;;;;;;1702171;29;20451;-83
2022/01/11 06:20:50;;;;;;;28.60;22.73;;;6.10;97.20;;;;;;1701398;29;20219;-83
2022/01/11 06:21:41;;;;;;;30.15;23.65;;;6.10;97.20;;;;;;1695662;29;20625;-84
2022/01/11 06:22:33;;;;;;;25.70;21.53;;;6.10;97.20;;;;;;1695721;29;20226;-79
2022/01/11 06:23:23;;;;;;;31.35;23.20;;;6.20;97.20;;;;;;1699523;29;20447;-82
2022/01/11 06:24:15;;;;;;;29.83;23.13;;;6.20;97.20;;;;;;1695809;29;20206;-82
2022/01/11 06:25:07;;;;;;;27.70;22.85;;;6.20;97.20;;;;;;1699071;29;20694;-82
2022/01/11 06:25:59;;;;;;;29.58;23.60;;;6.20;97.20;;;;;;1702410;29;20230;-82
2022/01/11 06:26:50;;;;;;;29.42;23.17;;;6.10;97.20;;;;;;1702333;29;20235;-82
2022/01/11 06:27:42;;;;;;;25.60;22.20;;;6.10;97.20;;;;;;1702220;29;20214;-82
2022/01/11 06:28:33;;;;;;;25.80;22.30;;;6.10;97.20;;;;;;1702247;29;20230;-82
2022/01/11 06:29:24;;;;;;;24.93;22.33;;;6.10;97.20;;;;;;1697334;29;20207;-81
2022/01/11 06:30:16;;;;;;;26.67;22.05;;;6.10;97.20;;;;;;1695714;29;20475;-82
2022/01/11 06:31:10;;;;;;;27.00;20.85;;;6.10;97.20;;;;;;1695833;29;20192;-82
2022/01/11 06:32:01;;;;;;;26.42;22.45;;;6.10;97.20;;;;;;1696010;29;20224;-81
2022/01/11 06:32:54;;;;;;;27.07;21.70;;;6.10;97.20;;;;;;1696204;29;20210;-83
2022/01/11 06:33:45;;;;;;;29.27;21.92;;;6.20;97.20;;;;;;1695330;29;20463;-82
2022/01/11 06:34:36;;;;;;;28.87;22.23;;;6.20;97.20;;;;;;1695248;29;20210;-82
2022/01/11 06:35:27;;;;;;;25.92;20.60;;;6.20;97.20;;;;;;1695029;29;20708;-82
2022/01/11 06:36:19;;;;;;;25.00;21.60;;;6.20;97.20;;;;;;1695399;29;20207;-82
2022/01/11 06:37:10;;;;;;;32.95;23.10;;;6.20;97.20;;;;;;1695341;29;20231;-82
2022/01/11 06:38:02;;;;;;;25.77;22.30;;;6.20;97.20;;;;;;1694972;29;20218;-82
2022/01/11 06:38:52;;;;;;;24.98;22.17;;;6.30;97.20;;;;;;1695016;29;20208;-82
2022/01/11 06:39:44;;;;;;;25.53;22.50;;;6.20;97.20;;;;;;1700491;29;20203;-81
2022/01/11 06:40:35;;;;;;;28.33;22.40;;;6.20;97.20;;;;;;1702966;29;20234;-82
2022/01/11 06:41:26;;;;;;;26.27;20.57;;;6.20;97.20;;;;;;1702967;29;20213;-82
2022/01/11 06:42:17;;;;;;;24.38;20.58;;;6.20;97.20;;;;;;1703411;29;20200;-82
2022/01/11 06:43:09;;;;;;;24.07;20.47;;;6.20;97.20;;;;;;1703181;29;20278;-81
2022/01/11 06:44:00;;;;;;;24.42;20.13;;;6.20;97.20;;;;;;1703127;29;20231;-81
2022/01/11 06:44:51;;;;;;;22.83;20.37;;;6.20;97.20;;;;;;1703287;29;20206;-81
2022/01/11 06:45:42;;;;;;;28.10;20.75;;;6.30;97.20;;;;;;1702929;29;20207;-82
2022/01/11 06:46:35;;;;;;;25.40;21.60;;;6.20;97.20;;;;;;1701496;29;20902;-82
2022/01/11 06:47:26;;;;;;;27.45;22.13;;;6.30;97.20;;;;;;1703049;29;20659;-82
2022/01/11 06:48:18;;;;;;;23.00;20.10;;;6.30;97.20;;;;;;1702414;29;20671;-82
2022/01/11 06:49:09;;;;;;;26.30;20.60;;;6.30;97.20;;;;;;1703661;29;20918;-82
2022/01/11 06:50:00;;;;;;;25.03;21.17;;;6.20;97.20;;;;;;1702885;29;20570;-82
2022/01/11 06:50:51;;;;;;;25.65;20.50;;;6.20;97.20;;;;;;1702965;29;20494;-81
2022/01/11 06:51:43;;;;;;;24.83;22.00;;;6.20;97.20;;;;;;1703243;29;20225;-82
2022/01/11 06:52:33;;;;;;;24.75;21.65;;;6.20;97.20;;;;;;1703459;29;20214;-82
2022/01/11 06:53:26;;;;;;;23.70;20.97;;;6.20;97.20;;;;;;1699479;29;20211;-82
2022/01/11 06:54:16;;;;;;;30.75;22.83;;;6.20;97.20;;;;;;1695849;29;20455;-81
2022/01/11 06:55:10;;;;;;;29.77;22.10;;;6.10;97.20;;;;;;1695585;29;20649;-81
2022/01/11 06:56:01;;;;;;;28.27;21.45;;;6.10;97.20;;;;;;1696587;29;20939;-83
2022/01/11 06:56:53;;;;;;;27.27;22.03;;;6.10;97.20;;;;;;1702318;29;20659;-81
2022/01/11 06:57:44;;;;;;;25.20;21.35;;;6.10;97.20;;;;;;1701672;29;20462;-82
2022/01/11 06:58:38;;;;;;;25.27;21.50;;;6.10;97.20;;;;;;1701676;29;20199;-82
2022/01/11 06:59:28;;;;;;;24.92;21.48;;;6.10;97.20;;;;;;1701740;29;20522;-83
2022/01/11 07:00:20;;;;;;;27.47;23.57;;;6.10;97.20;;;;;;1701624;29;20255;-82
2022/01/11 07:01:11;;;;;;;28.20;22.67;;;6.10;97.20;;;;;;1701608;29;20443;-83
2022/01/11 07:02:04;;;;;;;28.50;22.30;;;6.10;97.20;;;;;;1701772;29;20290;-82
2022/01/11 07:02:55;;;;;;;26.10;22.48;;;6.10;97.20;;;;;;1701727;29;20207;-83
2022/01/11 07:03:47;;;;;;;25.37;21.90;;;6.10;97.20;;;;;;1701840;29;20207;-83
2022/01/11 07:04:37;;;;;;;24.05;20.30;;;6.10;97.20;;;;;;1701435;29;20250;-83
2022/01/11 07:05:29;;;;;;;24.50;19.23;;;6.10;97.20;;;;;;1701597;29;20218;-81
2022/01/11 07:06:20;;;;;;;21.42;18.98;;;6.10;97.20;;;;;;1701343;29;20199;-80
2022/01/11 07:07:12;;;;;;;24.07;19.70;;;6.10;97.20;;;;;;1701479;29;20203;-80
2022/01/11 07:08:03;;;;;;;26.20;19.75;;;6.10;97.20;;;;;;1701386;29;20214;-80
2022/01/11 07:08:54;;;;;;;21.50;18.42;;;6.20;97.20;;;;;;1701957;29;20214;-80
2022/01/11 07:09:45;;;;;;;21.17;17.10;;;6.20;97.20;;;;;;1702135;29;20207;-80
2022/01/11 07:10:37;;;;;;;21.03;18.80;;;6.20;97.20;;;;;;1702129;29;20215;-81
2022/01/11 07:11:28;;;;;;;19.65;17.55;;;6.20;97.20;;;;;;1702422;29;20216;-81
2022/01/11 07:12:20;;;;;;;19.53;17.40;;;6.20;97.20;;;;;;1701388;29;20234;-81
2022/01/11 07:13:10;;;;;;;22.95;18.13;;;6.20;97.20;;;;;;1697688;29;20214;-81
2022/01/11 07:14:03;;;;;;;20.20;17.97;;;6.20;97.20;;;;;;1702017;29;20206;-81
2022/01/11 07:14:54;;;;;;;20.38;18.17;;;6.20;97.20;;;;;;1701750;29;20214;-81
2022/01/11 07:15:45;;;;;;;23.67;19.00;;;6.20;97.20;;;;;;1701743;29;20206;-81
2022/01/11 07:16:37;;;;;;;20.38;18.20;;;6.20;97.20;;;;;;1701821;29;20222;-81
2022/01/11 07:17:30;;;;;;;21.90;18.08;;;6.20;97.20;;;;;;1701662;29;20267;-81
2022/01/11 07:18:20;;;;;;;22.00;17.73;;;6.20;97.20;;;;;;1701604;29;20269;-81
2022/01/11 07:19:12;;;;;;;22.97;20.30;;;6.20;97.20;;;;;;1705355;29;20683;-81
2022/01/11 07:20:05;;;;;;;27.55;21.10;;;6.20;97.20;;;;;;1708769;29;20237;-81
2022/01/11 07:20:56;;;;;;;25.95;20.80;;;6.20;97.20;;;;;;1708762;28;20226;-81
2022/01/11 07:21:48;;;;;;;30.67;22.57;;;6.20;97.20;;;;;;1708370;29;20209;-81
2022/01/11 07:22:38;;;;;;;28.63;23.00;;;6.20;97.20;;;;;;1708412;28;20210;-81
2022/01/11 07:23:30;;;;;;;26.60;21.47;;;6.20;97.20;;;;;;1708457;28;20217;-81
2022/01/11 07:24:21;;;;;;;29.75;23.52;;;6.20;97.20;;;;;;1708477;29;20205;-81
2022/01/11 07:25:13;;;;;;;28.25;22.63;;;6.20;97.20;;;;;;1708078;29;20226;-81
2022/01/11 07:26:07;;;;;;;30.92;25.13;;;6.20;97.20;;;;;;1706450;29;20230;-81
2022/01/11 07:26:59;;;;;;;34.10;25.20;;;6.20;97.20;;;;;;1701907;29;20211;-81
2022/01/11 07:27:50;;;;;;;29.00;23.13;;;6.20;97.20;;;;;;1701588;29;20254;-81
2022/01/11 07:28:41;;;;;;;31.73;24.43;;;6.20;97.20;;;;;;1701813;29;20203;-81
2022/01/11 07:29:32;;;;;;;28.52;22.45;;;6.20;97.20;;;;;;1702079;29;20453;-81
2022/01/11 07:30:24;;;;;;;29.43;24.17;;;6.20;97.20;;;;;;1701843;29;20261;-81
2022/01/11 07:31:15;;;;;;;30.92;23.70;;;6.10;97.20;;;;;;1704459;29;20203;-81
2022/01/11 07:32:08;;;;;;;25.50;21.97;;;6.20;97.20;;;;;;1708379;29;20285;-81
2022/01/11 07:33:00;;;;;;;28.40;23.80;;;6.20;97.20;;;;;;1708475;28;20235;-81
2022/01/11 07:33:52;;;;;;;31.75;24.27;;;6.10;97.20;;;;;;1708567;28;20209;-81
2022/01/11 07:34:43;;;;;;;29.58;24.88;;;6.20;97.20;;;;;;1708577;29;20725;-81
2022/01/11 07:35:35;;;;;;;27.73;22.10;;;6.20;97.20;;;;;;1708617;29;20199;-81
2022/01/11 07:36:26;;;;;;;27.30;22.40;;;6.10;97.20;;;;;;1703963;29;20466;-81
2022/01/11 07:37:17;;;;;;;29.10;23.60;;;6.20;97.20;;;;;;1701587;29;20218;-81
2022/01/11 07:38:08;;;;;;;31.48;25.20;;;6.20;97.20;;;;;;1701733;29;20966;-81
2022/01/11 07:39:00;;;;;;;30.00;24.27;;;6.20;97.20;;;;;;1701737;29;20588;-81
2022/01/11 07:39:51;;;;;;;30.08;23.13;;;6.20;97.20;;;;;;1701799;29;20662;-81
2022/01/11 07:40:43;;;;;;;29.80;22.57;;;6.20;97.20;;;;;;1702121;29;20813;-81
2022/01/11 07:41:34;;;;;;;25.73;20.58;;;6.20;97.20;;;;;;1702042;29;20211;-81
2022/01/11 07:42:25;;;;;;;23.97;19.70;;;6.20;97.20;;;;;;1701785;29;20226;-81
2022/01/11 07:43:16;;;;;;;26.60;21.50;;;6.20;97.20;;;;;;1701987;29;20455;-81
2022/01/11 07:44:08;;;;;;;27.03;19.77;;;6.30;97.20;;;;;;1701911;29;20191;-81
2022/01/11 07:44:59;;;;;;;21.10;18.80;;;6.30;97.20;;;;;;1701661;29;20701;-81
2022/01/11 07:45:51;;;;;;;26.60;21.37;;;6.30;97.20;;;;;;1701988;29;20207;-81
2022/01/11 07:46:42;;;;;;;26.45;21.77;;;6.30;97.20;;;;;;1701310;29;20214;-81
2022/01/11 07:47:33;;;;;;;24.58;21.02;;;6.30;97.20;;;;;;1702058;29;20262;-81
2022/01/11 07:48:26;;;;;;;25.35;21.58;;;6.20;97.20;;;;;;1701995;29;20585;-81
2022/01/11 07:49:17;;;;;;;25.38;19.95;;;6.20;97.20;;;;;;1701620;29;20604;-81
2022/01/11 07:50:09;;;;;;;24.65;22.05;;;6.20;97.20;;;;;;1701855;29;20245;-81
2022/01/11 07:51:01;;;;;;;25.08;20.15;;;6.30;97.20;;;;;;1701773;29;20645;-81
2022/01/11 07:51:52;;;;;;;25.50;19.63;;;6.30;97.20;;;;;;1701816;29;20210;-81
2022/01/11 07:52:44;;;;;;;22.33;19.77;;;6.30;97.20;;;;;;1701804;29;20687;-81
2022/01/11 07:53:35;;;;;;;22.60;19.52;;;6.20;97.20;;;;;;1701854;29;20687;-81
2022/01/11 07:54:26;;;;;;;23.97;19.40;;;6.30;97.20;;;;;;1701686;29;20601;-81
2022/01/11 07:55:18;;;;;;;25.40;19.83;;;6.30;97.20;;;;;;1701796;29;20447;-81
2022/01/11 07:56:10;;;;;;;21.80;19.05;;;6.30;97.20;;;;;;1701446;29;20282;-81
2022/01/11 07:57:00;;;;;;;21.63;19.27;;;6.20;97.20;;;;;;1701884;29;20211;-81
2022/01/11 07:57:52;;;;;;;20.70;18.20;;;6.30;97.20;;;;;;1701433;29;20217;-81
2022/01/11 07:58:43;;;;;;;23.48;18.40;;;6.30;97.20;;;;;;1701417;29;20206;-81
2022/01/11 07:59:35;;;;;;;20.73;16.80;;;6.30;97.20;;;;;;1702007;29;20206;-81
2022/01/11 08:00:26;;;;;;;21.58;17.20;;;6.20;97.20;;;;;;1701001;29;20211;-81
2022/01/11 08:01:18;;;;;;;21.27;18.53;;;6.30;97.20;;;;;;1701903;29;20207;-81
2022/01/11 08:02:08;;;;;;;23.60;18.30;;;6.30;97.20;;;;;;1701862;29;20494;-81
2022/01/11 08:03:00;;;;;;;18.83;16.83;;;6.30;97.20;;;;;;1702195;29;20226;-81
2022/01/11 08:03:52;;;;;;;21.10;18.42;;;6.30;97.20;;;;;;1702599;29;20203;-81
2022/01/11 08:04:44;;;;;;;22.23;17.88;;;6.30;97.20;;;;;;1699939;29;20207;-81
2022/01/11 08:05:36;;;;;;;21.00;17.75;;;6.30;97.20;;;;;;1693339;29;20215;-81
2022/01/11 08:06:27;;;;;;;23.77;17.52;;;6.30;97.20;;;;;;1699346;29;20210;-81
2022/01/11 08:07:18;;;;;;;24.13;17.80;;;6.30;97.20;;;;;;1701784;29;20199;-81
2022/01/11 08:08:10;;;;;;;21.65;17.20;;;6.30;97.20;;;;;;1701369;29;20206;-81
2022/01/11 08:09:02;;;;;;;21.85;18.25;;;6.30;97.20;;;;;;1701957;29;20223;-81
2022/01/11 08:09:54;;;;;;;21.45;18.40;;;6.30;97.20;;;;;;1701830;29;20199;-81
2022/01/11 08:10:45;;;;;;;22.15;19.50;;;6.40;97.20;;;;;;1701511;29;20234;-81
2022/01/11 08:11:36;;;;;;;23.67;18.97;;;6.40;97.20;;;;;;1701505;29;20206;-81
2022/01/11 08:12:27;;;;;;;21.63;18.63;;;6.40;97.20;;;;;;1700609;29;20487;-81
2022/01/11 08:13:19;;;;;;;21.60;18.93;;;6.40;97.20;;;;;;1701880;29;20206;-81
2022/01/11 08:14:10;;;;;;;20.90;17.40;;;6.40;97.20;;;;;;1701728;29;20236;-81
2022/01/11 08:15:02;;;;;;;21.17;17.63;;;6.40;97.20;;;;;;1701827;29;20210;-81
2022/01/11 08:15:53;;;;;;;22.48;17.77;;;6.40;97.20;;;;;;1701701;29;21192;-81
2022/01/11 08:16:45;;;;;;;23.63;18.67;;;6.40;97.20;;;;;;1701294;29;20677;-81
2022/01/11 08:17:36;;;;;;;21.58;17.77;;;6.40;97.20;;;;;;1701541;29;20451;-81
2022/01/11 08:18:27;;;;;;;24.83;17.90;;;6.40;97.20;;;;;;1701521;29;20195;-81
2022/01/11 08:19:24;;;;;;;20.85;18.65;;;6.40;97.20;;;;;;1701642;29;20593;-81
2022/01/11 08:20:17;;;;;;;21.13;18.20;;;6.40;97.20;;;;;;1701524;29;20282;-81
2022/01/11 08:21:07;;;;;;;21.02;18.10;;;6.40;97.20;;;;;;1701928;29;20230;-81
2022/01/11 08:21:59;;;;;;;19.97;17.77;;;6.40;97.20;;;;;;1701682;29;20207;-81
2022/01/11 08:22:51;;;;;;;24.25;17.48;;;6.40;97.20;;;;;;1701733;29;20234;-81
2022/01/11 08:23:42;;;;;;;21.58;17.98;;;6.40;97.20;;;;;;1701703;29;20203;-81
2022/01/11 08:24:33;;;;;;;23.08;19.05;;;6.50;97.20;;;;;;1706099;29;20194;-81
2022/01/11 08:25:26;;;;;;;24.65;19.17;;;6.50;97.20;;;;;;1708411;29;20288;-81
2022/01/11 08:26:17;;;;;;;22.38;18.55;;;6.50;97.20;;;;;;1706234;29;20235;-81
2022/01/11 08:27:09;;;;;;;20.90;18.60;;;6.50;97.20;;;;;;1701399;29;20203;-81
2022/01/11 08:28:00;;;;;;;21.27;17.90;;;6.50;97.20;;;;;;1701285;29;20235;-81
2022/01/11 08:28:52;;;;;;;20.43;17.87;;;6.50;97.20;;;;;;1701486;29;20207;-81
2022/01/11 08:29:43;;;;;;;20.88;17.95;;;6.50;97.20;;;;;;1701837;29;20474;-81
2022/01/11 08:30:35;;;;;;;20.55;17.48;;;6.50;97.20;;;;;;1701550;29;20235;-81
2022/01/11 08:31:26;;;;;;;22.25;18.63;;;6.50;97.20;;;;;;1701728;29;20230;-81
2022/01/11 08:32:18;;;;;;;21.50;17.90;;;6.50;97.20;;;;;;1701534;29;20203;-81
2022/01/11 08:33:09;;;;;;;21.73;18.17;;;6.50;97.20;;;;;;1701513;29;20526;-81
2022/01/11 08:34:01;;;;;;;25.10;18.85;;;6.50;97.20;;;;;;1701570;29;20227;-81
2022/01/11 08:34:53;;;;;;;22.08;19.17;;;6.50;97.20;;;;;;1702397;29;20211;-81
2022/01/11 08:35:45;;;;;;;22.02;18.20;;;6.50;97.20;;;;;;1702979;29;20249;-81
2022/01/11 08:36:35;;;;;;;20.50;17.02;;;6.50;97.20;;;;;;1702795;29;20210;-81
2022/01/11 08:37:27;;;;;;;22.47;18.50;;;6.50;97.20;;;;;;1703086;29;20213;-81
2022/01/11 08:38:18;;;;;;;19.48;17.30;;;6.50;97.20;;;;;;1702734;29;20655;-81
2022/01/11 08:39:12;;;;;;;21.73;18.97;;;6.50;97.20;;;;;;1702862;29;20734;-81
2022/01/11 08:40:05;;;;;;;22.73;17.63;;;6.50;97.20;;;;;;1702834;29;20451;-81
2022/01/11 08:40:56;;;;;;;21.85;17.98;;;6.50;97.20;;;;;;1702790;29;20226;-81
2022/01/11 08:41:48;;;;;;;19.90;17.43;;;6.50;97.20;;;;;;1702741;29;20205;-81
2022/01/11 08:42:40;;;;;;;20.88;18.65;;;6.50;97.20;;;;;;1702921;29;20215;-81
2022/01/11 08:43:32;;;;;;;19.85;17.27;;;6.50;97.20;;;;;;1702777;29;20207;-81
2022/01/11 08:44:24;;;;;;;25.70;17.88;;;6.50;97.20;;;;;;1703007;29;20284;-81
2022/01/11 08:45:15;;;;;;;21.15;17.63;;;6.50;97.20;;;;;;1702931;29;20235;-81
2022/01/11 08:46:06;;;;;;;22.15;16.48;;;6.50;97.20;;;;;;1703020;29;20964;-81
2022/01/11 08:46:58;;;;;;;22.33;18.50;;;6.50;97.20;;;;;;1702759;29;20712;-81
2022/01/11 08:47:49;;;;;;;21.50;18.95;;;6.50;97.20;;;;;;1702643;29;20839;-81
2022/01/11 08:48:41;;;;;;;25.17;18.90;;;6.50;97.20;;;;;;1702776;29;20588;-81
2022/01/11 08:49:31;;;;;;;23.85;18.40;;;6.50;97.20;;;;;;1702568;29;20487;-81
2022/01/11 08:50:24;;;;;;;24.50;17.63;;;6.50;97.20;;;;;;1702785;29;20211;-81
2022/01/11 08:51:15;;;;;;;19.75;17.55;;;6.60;97.20;;;;;;1702909;29;20218;-81
2022/01/11 08:52:07;;;;;;;21.73;17.55;;;6.60;97.20;;;;;;1702831;29;20200;-81
2022/01/11 08:52:58;;;;;;;22.63;17.88;;;6.60;97.20;;;;;;1702743;29;20227;-81
2022/01/11 08:53:50;;;;;;;20.10;17.23;;;6.60;97.20;;;;;;1703075;29;20230;-81
2022/01/11 08:54:41;;;;;;;25.38;17.60;;;6.60;97.20;;;;;;1702851;29;20214;-81
2022/01/11 08:55:33;;;;;;;22.43;19.10;;;6.60;97.20;;;;;;1702978;29;20191;-81
2022/01/11 08:56:23;;;;;;;21.75;17.83;;;6.60;97.20;;;;;;1702541;29;20447;-81
2022/01/11 08:57:19;;;;;;;20.93;17.60;;;6.60;97.20;;;;;;1702912;29;20307;-81
2022/01/11 08:58:09;;;;;;;23.30;19.13;;;6.60;97.20;;;;;;1702777;29;20792;-81
2022/01/11 08:59:01;;;;;;;19.97;16.63;;;6.60;97.20;;;;;;1702680;29;20213;-81
2022/01/11 08:59:52;;;;;;;21.02;18.08;;;6.70;97.20;;;;;;1702834;29;20214;-81
2022/01/11 09:00:44;;;;;;;18.20;16.23;;;6.70;97.20;;;;;;1703890;29;20227;-81
2022/01/11 09:01:34;;;;;;;19.50;16.80;;;6.70;97.20;;;;;;1709369;29;20206;-81
2022/01/11 09:02:26;;;;;;;22.17;18.20;;;6.70;97.20;;;;;;1709292;29;20720;-81
2022/01/11 09:03:19;;;;;;;20.10;17.63;;;6.70;97.20;;;;;;1709407;29;20693;-81
2022/01/11 09:04:09;;;;;;;19.45;17.30;;;6.70;97.20;;;;;;1709519;29;20205;-81
2022/01/11 09:05:01;;;;;;;20.10;16.43;;;6.70;97.20;;;;;;1709453;29;20293;-81
2022/01/11 09:05:54;;;;;;;21.83;18.08;;;6.70;97.20;;;;;;1709507;29;20203;-81
2022/01/11 09:06:45;;;;;;;22.30;16.75;;;6.70;97.20;;;;;;1704470;29;20215;-81
2022/01/11 09:07:37;;;;;;;20.03;16.80;;;6.70;97.20;;;;;;1702567;29;20684;-81
2022/01/11 09:08:28;;;;;;;18.77;16.48;;;6.70;97.20;;;;;;1702181;29;20446;-81
2022/01/11 09:09:23;;;;;;;23.63;16.42;;;6.70;97.20;;;;;;1702863;29;20203;-81
2022/01/11 09:10:15;;;;;;;24.30;18.40;;;6.70;97.20;;;;;;1702339;29;20208;-81
2022/01/11 09:11:06;;;;;;;21.27;17.65;;;6.70;97.20;;;;;;1702313;29;20222;-81
2022/01/11 09:11:58;;;;;;;21.17;16.55;;;6.70;97.20;;;;;;1702048;29;20674;-80
2022/01/11 09:12:50;;;;;;;19.30;17.25;;;6.80;97.20;;;;;;1702161;29;20269;-81
2022/01/11 09:13:41;;;;;;;24.92;16.98;;;6.80;97.20;;;;;;1702191;29;20211;-81
2022/01/11 09:14:33;;;;;;;22.30;17.70;;;6.80;97.20;;;;;;1702487;29;20258;-81
2022/01/11 09:15:25;;;;;;;21.08;15.88;;;6.80;97.20;;;;;;1702354;29;20556;-81
2022/01/11 09:16:17;;;;;;;20.75;17.55;;;6.80;97.20;;;;;;1702123;29;20729;-80
2022/01/11 09:17:10;;;;;;;20.17;16.63;;;6.80;97.20;;;;;;1701977;29;20199;-80
2022/01/11 09:18:02;;;;;;;20.02;15.73;;;6.80;97.20;;;;;;1702100;29;20211;-81
2022/01/11 09:18:53;;;;;;;23.63;17.08;;;6.80;97.20;;;;;;1702232;29;20207;-81
2022/01/11 09:19:44;;;;;;;22.63;16.90;;;6.80;97.20;;;;;;1702331;29;20205;-81
2022/01/11 09:20:35;;;;;;;19.42;16.25;;;6.80;97.20;;;;;;1702198;29;20227;-80
2022/01/11 09:21:30;;;;;;;19.27;17.27;;;6.80;97.20;;;;;;1702382;29;20226;-81
2022/01/11 09:22:21;;;;;;;20.55;15.40;;;6.80;97.20;;;;;;1702121;29;20506;-81
2022/01/11 09:23:13;;;;;;;20.47;16.03;;;6.80;97.20;;;;;;1702367;29;20200;-80
2022/01/11 09:24:05;;;;;;;19.50;16.30;;;6.80;97.20;;;;;;1702577;29;20218;-81
2022/01/11 09:24:57;;;;;;;16.98;15.05;;;6.80;97.20;;;;;;1702386;29;20234;-81
2022/01/11 09:25:48;;;;;;;18.02;15.98;;;6.80;97.20;;;;;;1702440;29;20215;-80
2022/01/11 09:26:39;;;;;;;17.83;15.03;;;6.80;97.20;;;;;;1702267;29;20243;-81
2022/01/11 09:27:30;;;;;;;19.15;16.02;;;6.80;97.20;;;;;;1702466;29;20203;-81
2022/01/11 09:28:23;;;;;;;18.60;16.27;;;6.80;97.20;;;;;;1702044;29;20203;-80
2022/01/11 09:29:14;;;;;;;18.48;16.52;;;6.80;97.20;;;;;;1702279;29;20199;-81
2022/01/11 09:30:08;;;;;;;22.42;16.65;;;6.80;97.20;;;;;;1702354;29;20608;-81
2022/01/11 09:30:59;;;;;;;19.05;15.90;;;6.80;97.20;;;;;;1702336;29;20297;-80
2022/01/11 09:31:50;;;;;;;18.20;15.50;;;6.80;97.20;;;;;;1702149;29;20235;-80
2022/01/11 09:32:42;;;;;;;17.70;14.77;;;6.80;97.20;;;;;;1702257;29;20450;-80
2022/01/11 09:33:34;;;;;;;21.20;15.55;;;6.90;97.20;;;;;;1702191;29;20234;-80
2022/01/11 09:34:25;;;;;;;24.55;17.40;;;6.90;97.20;;;;;;1702245;29;20246;-81
2022/01/11 09:35:18;;;;;;;16.83;15.07;;;6.90;97.20;;;;;;1702204;29;20292;-81
2022/01/11 09:36:09;;;;;;;19.20;15.85;;;6.90;97.20;;;;;;1702273;29;20215;-80
2022/01/11 09:37:02;;;;;;;18.87;15.83;;;6.90;97.20;;;;;;1702059;29;20205;-81
2022/01/11 09:37:53;;;;;;;19.50;16.60;;;6.90;97.20;;;;;;1701894;29;20649;-80
2022/01/11 09:38:45;;;;;;;19.23;17.20;;;6.90;97.20;;;;;;1702261;29;20213;-81
2022/01/11 09:39:38;;;;;;;19.38;17.13;;;6.90;97.20;;;;;;1702384;29;20446;-81
2022/01/11 09:40:29;;;;;;;19.67;17.45;;;6.90;97.20;;;;;;1702058;29;20730;-80
2022/01/11 09:41:20;;;;;;;21.30;16.47;;;6.90;97.20;;;;;;1702414;29;20600;-81
2022/01/11 09:42:11;;;;;;;21.17;17.75;;;6.90;97.20;;;;;;1702456;29;20238;-81
2022/01/11 09:43:03;;;;;;;22.90;17.40;;;6.90;97.20;;;;;;1702119;29;20209;-81
2022/01/11 09:43:54;;;;;;;23.63;18.17;;;6.90;97.20;;;;;;1701862;29;20968;-80
2022/01/11 09:44:47;;;;;;;22.20;18.77;;;6.90;97.20;;;;;;1702290;29;20573;-81
2022/01/11 09:45:38;;;;;;;22.17;17.80;;;6.90;97.20;;;;;;1702053;29;20466;-81
2022/01/11 09:46:30;;;;;;;22.75;18.38;;;6.90;97.20;;;;;;1701868;29;20229;-81
2022/01/11 09:47:22;;;;;;;22.25;19.92;;;6.90;97.20;;;;;;1702127;29;20215;-81
2022/01/11 09:48:13;;;;;;;23.60;18.98;;;6.90;97.20;;;;;;1702028;29;20649;-81
2022/01/11 09:49:05;;;;;;;24.13;20.00;;;6.90;97.20;;;;;;1702279;29;20203;-80
2022/01/11 09:49:56;;;;;;;22.67;19.80;;;6.90;97.20;;;;;;1702054;29;20203;-81
2022/01/11 09:50:48;;;;;;;25.43;20.17;;;6.90;97.20;;;;;;1702005;29;20225;-81
2022/01/11 09:51:39;;;;;;;22.58;18.55;;;6.90;97.20;;;;;;1702026;29;20486;-81
2022/01/11 09:52:32;;;;;;;20.27;18.02;;;7.00;97.20;;;;;;1702206;29;20608;-81
2022/01/11 09:53:23;;;;;;;21.77;18.90;;;7.00;97.20;;;;;;1702169;29;20609;-80
2022/01/11 09:54:18;;;;;;;22.10;18.47;;;7.00;97.20;;;;;;1702194;29;20207;-80
2022/01/11 09:55:13;;;;;;;25.58;20.50;;;7.00;97.20;;;;;;1701943;29;20961;-81
2022/01/11 09:56:06;;;;;;;20.33;18.20;;;7.00;97.20;;;;;;1703070;29;20254;-81
2022/01/11 09:56:57;;;;;;;20.83;17.80;;;7.00;97.20;;;;;;1702302;29;20195;-80
2022/01/11 09:57:49;;;;;;;21.98;17.98;;;7.00;97.20;;;;;;1701847;29;20207;-81
2022/01/11 09:58:41;;;;;;;19.33;17.08;;;7.00;97.20;;;;;;1701869;29;20210;-81
2022/01/11 09:59:33;;;;;;;18.48;16.42;;;7.00;97.20;;;;;;1702200;29;20251;-81
2022/01/11 10:00:25;;;;;;;20.35;15.48;;;7.00;97.20;;;;;;1701765;29;20203;-81
2022/01/11 10:01:15;;;;;;;18.08;15.20;;;7.00;97.20;;;;;;1707992;29;20203;-81
2022/01/11 10:02:07;;;;;;;16.70;14.90;;;7.00;97.20;;;;;;1708435;29;20198;-81
2022/01/11 10:02:58;;;;;;;16.05;14.35;;;7.00;97.20;;;;;;1708712;29;20453;-81
2022/01/11 10:03:59;;;;;;;16.90;14.55;;;7.00;97.20;;;;;;1708676;29;20253;-81
2022/01/11 10:04:58;;;;;;;15.23;13.32;;;7.00;97.20;;;;;;1708634;29;20202;-81
2022/01/11 10:05:48;;;;;;;15.13;13.63;;;7.00;97.20;;;;;;1708518;28;20253;-81
2022/01/11 10:06:43;;;;;;;15.20;13.60;;;7.00;97.20;;;;;;1706263;29;20261;-81
2022/01/11 10:07:40;;;;;;;16.13;14.25;;;7.00;97.20;;;;;;1701637;29;20196;-81
2022/01/11 10:08:32;;;;;;;15.68;13.95;;;7.00;97.20;;;;;;1701939;29;20215;-81
2022/01/11 10:09:26;;;;;;;21.13;14.68;;;7.00;97.20;;;;;;1701838;29;20567;-81
2022/01/11 10:10:20;;;;;;;16.90;15.10;;;7.00;97.20;;;;;;1701883;29;20204;-81
2022/01/11 10:11:10;;;;;;;16.80;13.65;;;7.00;97.20;;;;;;1702096;29;20204;-81
2022/01/11 10:12:10;;;;;;;18.63;14.55;;;7.10;97.20;;;;;;1701961;29;20203;-81
2022/01/11 10:13:03;;;;;;;17.88;13.52;;;7.10;97.20;;;;;;1702375;29;20207;-81
2022/01/11 10:13:55;;;;;;;16.15;13.15;;;7.10;97.20;;;;;;1702064;29;20730;-81
2022/01/11 10:14:48;;;;;;;15.75;12.93;;;7.10;97.20;;;;;;1702077;29;20679;-81
2022/01/11 10:15:40;;;;;;;17.17;13.93;;;7.10;97.20;;;;;;1702110;29;20241;-81
2022/01/11 10:16:31;;;;;;;16.15;12.52;;;7.10;97.20;;;;;;1701577;29;20211;-81
2022/01/11 10:17:24;;;;;;;15.57;13.83;;;7.10;97.20;;;;;;1701815;29;20659;-81
2022/01/11 10:18:34;;;;;;;14.40;12.90;;;7.10;97.20;;;;;;1701404;29;20203;-80
2022/01/11 10:19:27;;;;;;;14.15;12.75;;;7.10;97.20;;;;;;1701713;29;20203;-81
2022/01/11 10:20:22;;;;;;;15.90;13.63;;;7.10;97.20;;;;;;1701847;29;20207;-80
2022/01/11 10:21:33;;;;;;;17.70;13.90;;;7.10;97.20;;;;;;1701917;29;20663;-81
2022/01/11 10:22:25;;;;;;;17.40;13.35;;;7.10;97.20;;;;;;1701871;29;20211;-81
2022/01/11 10:23:30;;;;;;;18.23;15.77;;;7.10;97.20;;;;;;1701814;29;20459;-81
2022/01/11 10:24:32;;;;;;;19.23;16.50;;;7.10;97.20;;;;;;1701790;29;20302;-81
2022/01/11 10:25:24;;;;;;;22.48;17.65;;;7.10;97.20;;;;;;1701703;29;20218;-80
2022/01/11 10:26:36;;;;;;;18.95;16.10;;;7.10;97.20;;;;;;1701931;29;20200;-81